createdAt,value
2018-05-23T00:01:21.144Z,15.40
2018-05-23T00:03:49.338Z,15.30
2018-05-23T00:06:17.485Z,15.20
2018-05-23T00:08:45.688Z,15.20
2018-05-23T00:11:20.647Z,15.20
2018-05-23T00:13:48.895Z,15.20
2018-05-23T00:16:17.118Z,15.20
2018-05-23T00:18:46.038Z,15.20
2018-05-23T00:21:14.247Z,15.20
2018-05-23T00:23:43.385Z,15.20
2018-05-23T00:26:12.289Z,15.20
2018-05-23T00:28:40.530Z,15.10
2018-05-23T00:31:08.670Z,15.20
2018-05-23T00:33:36.834Z,15.10
2018-05-23T00:36:08.205Z,15.10
2018-05-23T00:38:36.334Z,15.10
2018-05-23T00:41:07.699Z,15.00
2018-05-23T00:43:35.856Z,15.00
2018-05-23T00:46:04.013Z,15.00
2018-05-23T00:48:32.917Z,14.90
2018-05-23T00:51:01.108Z,14.90
2018-05-23T00:53:29.498Z,14.80
2018-05-23T00:55:57.675Z,14.90
2018-05-23T00:58:25.801Z,14.80
2018-05-23T01:00:54.702Z,14.80
2018-05-23T01:03:22.822Z,14.70
2018-05-23T01:05:50.955Z,14.80
2018-05-23T01:08:19.086Z,14.70
2018-05-23T01:10:47.237Z,14.70
2018-05-23T01:13:15.367Z,14.70
2018-05-23T01:15:43.498Z,14.70
2018-05-23T01:18:16.170Z,14.60
2018-05-23T01:20:44.327Z,14.60
2018-05-23T01:23:12.465Z,14.60
2018-05-23T01:25:40.585Z,14.60
2018-05-23T01:28:08.730Z,14.50
2018-05-23T01:30:36.867Z,14.50
2018-05-23T01:33:06.168Z,14.50
2018-05-23T01:35:34.361Z,14.40
2018-05-23T01:38:02.504Z,14.30
2018-05-23T01:40:31.402Z,14.40
2018-05-23T01:42:59.524Z,14.40
2018-05-23T01:45:27.659Z,14.40
2018-05-23T01:47:55.782Z,14.40
2018-05-23T01:50:23.969Z,14.30
2018-05-23T01:52:52.100Z,14.20
2018-05-23T01:55:20.302Z,14.10
2018-05-23T01:57:49.217Z,14.00
2018-05-23T02:00:18.140Z,14.00
2018-05-23T02:02:46.269Z,14.00
2018-05-23T02:05:15.178Z,13.80
2018-05-23T02:07:43.361Z,13.80
2018-05-23T02:10:11.500Z,13.90
2018-05-23T02:12:39.719Z,13.90
2018-05-23T02:15:07.867Z,13.80
2018-05-23T02:17:36.030Z,13.80
2018-05-23T02:20:04.979Z,13.70
2018-05-23T02:22:33.153Z,13.60
2018-05-23T02:25:01.296Z,13.60
2018-05-23T02:27:29.426Z,13.60
2018-05-23T02:29:58.363Z,13.50
2018-05-23T02:32:26.505Z,13.50
2018-05-23T02:34:55.417Z,13.30
2018-05-23T02:37:24.241Z,13.30
2018-05-23T02:39:52.397Z,13.20
2018-05-23T02:42:20.531Z,13.10
2018-05-23T02:44:48.676Z,13.10
2018-05-23T02:47:16.811Z,13.00
2018-05-23T02:49:44.956Z,13.00
2018-05-23T02:52:13.113Z,13.00
2018-05-23T02:54:42.014Z,12.90
2018-05-23T02:57:10.907Z,12.80
2018-05-23T02:59:39.080Z,12.80
2018-05-23T03:02:08.000Z,12.80
2018-05-23T03:04:36.118Z,12.80
2018-05-23T03:07:04.253Z,12.80
2018-05-23T03:09:32.385Z,12.80
2018-05-23T03:12:00.509Z,12.80
2018-05-23T03:14:28.719Z,12.90
2018-05-23T03:16:57.616Z,12.80
2018-05-23T03:19:26.553Z,12.90
2018-05-23T03:21:54.695Z,12.90
2018-05-23T03:24:22.823Z,12.90
2018-05-23T03:26:50.946Z,12.90
2018-05-23T03:29:19.094Z,12.90
2018-05-23T03:31:47.979Z,12.80
2018-05-23T03:34:16.880Z,12.80
2018-05-23T03:36:45.767Z,12.70
2018-05-23T03:39:13.903Z,12.70
2018-05-23T03:41:42.025Z,12.80
2018-05-23T03:44:10.198Z,12.80
2018-05-23T03:46:38.337Z,12.80
2018-05-23T03:49:07.252Z,13.00
2018-05-23T03:51:35.389Z,12.90
2018-05-23T03:54:03.522Z,13.00
2018-05-23T03:56:31.673Z,13.00
2018-05-23T03:58:59.914Z,13.00
2018-05-23T04:01:45.696Z,13.00
2018-05-23T04:04:31.582Z,13.10
2018-05-23T04:10:25.826Z,13.20
2018-05-23T04:12:53.997Z,13.30
2018-05-23T04:15:22.167Z,13.30
2018-05-23T04:17:51.044Z,13.40
2018-05-23T04:20:20.693Z,13.40
2018-05-23T04:25:23.339Z,13.50
2018-05-23T04:27:52.246Z,13.60
2018-05-23T04:30:20.394Z,13.60
2018-05-23T04:32:49.291Z,13.70
2018-05-23T04:35:18.968Z,13.80
2018-05-23T04:37:47.102Z,13.80
2018-05-23T04:40:15.257Z,13.80
2018-05-23T04:42:43.405Z,13.90
2018-05-23T04:45:11.565Z,13.90
2018-05-23T04:47:39.719Z,14.00
2018-05-23T04:50:08.419Z,14.00
2018-05-23T04:52:36.815Z,14.10
2018-05-23T04:55:04.933Z,14.10
2018-05-23T04:57:33.106Z,14.20
2018-05-23T05:00:01.274Z,14.30
2018-05-23T05:02:29.437Z,14.40
2018-05-23T05:04:57.625Z,14.50
2018-05-23T05:07:25.744Z,14.60
2018-05-23T05:09:53.890Z,14.60
2018-05-23T05:12:22.049Z,14.70
2018-05-23T05:14:50.191Z,14.70
2018-05-23T05:17:19.089Z,14.90
2018-05-23T05:19:47.997Z,14.90
2018-05-23T05:22:21.785Z,14.90
2018-05-23T05:24:50.905Z,15.20
2018-05-23T05:27:18.969Z,15.10
2018-05-23T05:29:47.172Z,15.20
2018-05-23T05:32:15.414Z,15.40
2018-05-23T05:34:43.570Z,15.60
2018-05-23T05:37:11.738Z,15.80
2018-05-23T05:39:39.889Z,16.10
2018-05-23T05:42:08.050Z,16.40
2018-05-23T05:44:36.178Z,16.70
2018-05-23T05:47:04.357Z,16.90
2018-05-23T05:49:32.467Z,17.10
2018-05-23T05:52:00.592Z,17.40
2018-05-23T05:54:28.735Z,17.30
2018-05-23T05:56:57.631Z,17.40
2018-05-23T05:59:26.527Z,17.60
2018-05-23T06:01:54.697Z,17.60
2018-05-23T06:04:23.635Z,17.80
2018-05-23T06:06:51.793Z,17.80
2018-05-23T06:09:19.943Z,18.00
2018-05-23T06:11:48.080Z,18.10
2018-05-23T06:14:16.210Z,18.30
2018-05-23T06:16:44.452Z,18.30
2018-05-23T06:19:12.581Z,18.30
2018-05-23T06:21:40.730Z,18.30
2018-05-23T06:24:08.867Z,18.30
2018-05-23T06:26:37.760Z,18.30
2018-05-23T06:29:05.982Z,18.30
2018-05-23T06:31:34.108Z,18.40
2018-05-23T06:34:02.232Z,18.40
2018-05-23T06:36:30.390Z,18.30
2018-05-23T06:38:58.561Z,18.30
2018-05-23T06:41:26.749Z,18.20
2018-05-23T06:43:54.899Z,18.20
2018-05-23T06:46:23.033Z,18.30
2018-05-23T06:48:51.926Z,18.40
2018-05-23T06:51:20.866Z,18.40
2018-05-23T06:53:48.996Z,18.30
2018-05-23T06:56:17.756Z,18.40
2018-05-23T06:58:46.029Z,18.40
2018-05-23T07:01:14.153Z,18.40
2018-05-23T07:03:42.289Z,18.40
2018-05-23T07:06:10.471Z,18.50
2018-05-23T07:08:38.596Z,18.60
2018-05-23T07:11:06.825Z,18.60
2018-05-23T07:13:35.705Z,18.90
2018-05-23T07:16:03.881Z,18.90
2018-05-23T07:18:32.033Z,18.90
2018-05-23T07:21:00.933Z,19.00
2018-05-23T07:23:29.851Z,19.10
2018-05-23T07:25:57.988Z,19.10
2018-05-23T07:28:26.964Z,19.20
2018-05-23T07:30:55.191Z,19.20
2018-05-23T07:33:23.408Z,19.30
2018-05-23T07:35:51.554Z,19.40
2018-05-23T07:38:19.740Z,19.40
2018-05-23T07:40:47.865Z,19.50
2018-05-23T07:43:16.016Z,19.60
2018-05-23T07:45:48.973Z,19.60
2018-05-23T07:48:17.104Z,19.60
2018-05-23T07:50:45.243Z,19.70
2018-05-23T07:53:14.863Z,19.80
2018-05-23T07:55:43.967Z,19.80
2018-05-23T07:58:12.902Z,19.90
2018-05-23T08:00:41.032Z,19.80
2018-05-23T08:03:09.180Z,20.00
2018-05-23T08:05:38.156Z,20.20
2018-05-23T08:08:06.311Z,20.20
2018-05-23T08:10:34.432Z,20.30
2018-05-23T08:13:02.562Z,20.40
2018-05-23T08:15:30.703Z,20.40
2018-05-23T08:17:58.853Z,20.40
2018-05-23T08:20:27.737Z,20.30
2018-05-23T08:22:56.641Z,20.30
2018-05-23T08:25:25.702Z,20.30
2018-05-23T08:27:53.840Z,20.40
2018-05-23T08:30:22.029Z,20.50
2018-05-23T08:32:50.173Z,20.60
2018-05-23T08:35:18.348Z,20.80
2018-05-23T08:37:46.504Z,20.90
2018-05-23T08:40:14.644Z,21.00
2018-05-23T08:42:42.794Z,21.10
2018-05-23T08:45:10.926Z,21.10
2018-05-23T08:47:39.303Z,21.10
2018-05-23T08:50:07.432Z,21.20
2018-05-23T08:52:35.610Z,21.20
2018-05-23T08:55:04.546Z,21.40
2018-05-23T08:57:32.671Z,21.40
2018-05-23T09:00:01.586Z,21.50
2018-05-23T09:02:29.725Z,21.50
2018-05-23T09:04:57.928Z,21.50
2018-05-23T09:07:26.056Z,21.40
2018-05-23T09:09:54.211Z,21.50
2018-05-23T09:12:22.378Z,21.70
2018-05-23T09:14:50.521Z,21.80
2018-05-23T09:17:18.648Z,21.80
2018-05-23T09:19:46.802Z,21.90
2018-05-23T09:22:14.963Z,22.00
2018-05-23T09:24:43.102Z,22.20
2018-05-23T09:27:11.264Z,22.30
2018-05-23T09:29:39.394Z,22.40
2018-05-23T09:32:07.639Z,22.60
2018-05-23T09:34:35.687Z,22.60
2018-05-23T09:37:04.606Z,22.70
2018-05-23T09:39:32.752Z,22.70
2018-05-23T09:42:01.678Z,22.80
2018-05-23T09:44:29.877Z,22.80
2018-05-23T09:46:58.083Z,22.70
2018-05-23T09:49:27.004Z,22.90
2018-05-23T09:51:55.168Z,22.80
2018-05-23T09:54:23.317Z,22.90
2018-05-23T09:56:51.461Z,22.90
2018-05-23T09:59:19.606Z,23.00
2018-05-23T10:01:47.745Z,23.10
2018-05-23T10:04:16.650Z,23.00
2018-05-23T10:06:44.804Z,22.90
2018-05-23T10:09:13.696Z,23.00
2018-05-23T10:11:41.836Z,23.00
2018-05-23T10:14:09.970Z,23.00
2018-05-23T10:16:38.087Z,23.20
2018-05-23T10:19:06.258Z,23.30
2018-05-23T10:21:34.435Z,23.20
2018-05-23T10:24:02.957Z,23.10
2018-05-23T10:26:31.125Z,23.20
2018-05-23T10:28:59.270Z,23.30
2018-05-23T10:31:27.397Z,23.40
2018-05-23T10:33:55.534Z,23.50
2018-05-23T10:36:24.417Z,23.50
2018-05-23T10:38:53.311Z,23.60
2018-05-23T10:41:22.268Z,23.60
2018-05-23T10:43:50.412Z,23.60
2018-05-23T10:46:18.646Z,23.60
2018-05-23T10:48:46.781Z,23.70
2018-05-23T10:51:15.704Z,23.70
2018-05-23T10:53:44.597Z,23.70
2018-05-23T10:56:13.649Z,23.70
2018-05-23T10:58:41.816Z,23.70
2018-05-23T11:01:10.361Z,23.60
2018-05-23T11:03:38.552Z,23.50
2018-05-23T11:06:06.679Z,23.30
2018-05-23T11:08:35.585Z,23.30
2018-05-23T11:11:03.702Z,23.30
2018-05-23T11:13:31.860Z,23.30
2018-05-23T11:16:00.759Z,23.20
2018-05-23T11:18:33.043Z,23.10
2018-05-23T11:21:01.181Z,23.20
2018-05-23T11:23:29.378Z,23.20
2018-05-23T11:25:57.554Z,23.30
2018-05-23T11:28:26.145Z,23.50
2018-05-23T11:30:54.301Z,23.50
2018-05-23T11:33:22.473Z,23.40
2018-05-23T11:35:50.617Z,23.60
2018-05-23T11:38:20.454Z,23.80
2018-05-23T11:40:48.681Z,24.00
2018-05-23T11:43:17.544Z,24.00
2018-05-23T11:45:46.617Z,24.20
2018-05-23T11:48:14.844Z,24.20
2018-05-23T11:50:43.737Z,24.30
2018-05-23T11:53:12.712Z,24.30
2018-05-23T11:58:39.663Z,24.30
2018-05-23T12:01:07.829Z,24.00
2018-05-23T12:03:49.971Z,24.10
2018-05-23T12:06:28.504Z,24.30
2018-05-23T12:08:59.848Z,24.40
2018-05-23T12:11:28.521Z,24.30
2018-05-23T12:13:56.885Z,24.20
2018-05-23T12:16:49.674Z,24.40
2018-05-23T12:19:17.940Z,24.40
2018-05-23T12:21:46.214Z,24.60
2018-05-23T12:24:14.427Z,24.60
2018-05-23T12:26:43.471Z,24.50
2018-05-23T12:29:11.620Z,24.60
2018-05-23T12:31:41.955Z,24.70
2018-05-23T12:34:18.552Z,24.60
2018-05-23T12:36:47.225Z,24.60
2018-05-23T12:39:16.095Z,24.70
2018-05-23T12:41:46.521Z,24.80
2018-05-23T12:44:16.678Z,24.40
2018-05-23T12:46:49.803Z,24.30
2018-05-23T12:49:18.143Z,24.40
2018-05-23T12:51:46.338Z,24.70
2018-05-23T12:54:14.614Z,25.00
2018-05-23T12:56:42.837Z,25.10
2018-05-23T12:59:11.042Z,25.30
2018-05-23T13:01:39.226Z,25.50
2018-05-23T13:04:07.413Z,25.70
2018-05-23T13:06:35.550Z,25.60
2018-05-23T13:09:03.707Z,25.60
2018-05-23T13:11:32.753Z,24.90
2018-05-23T13:14:00.984Z,24.80
2018-05-23T13:16:29.125Z,24.60
2018-05-23T13:18:57.262Z,24.50
2018-05-23T13:21:25.396Z,24.10
2018-05-23T13:23:55.642Z,24.10
2018-05-23T13:29:17.924Z,24.30
2018-05-23T13:31:46.062Z,24.30
2018-05-23T13:34:14.182Z,24.10
2018-05-23T13:36:42.393Z,24.00
2018-05-23T13:39:10.797Z,24.00
2018-05-23T13:41:39.001Z,24.00
2018-05-23T13:44:07.291Z,24.00
2018-05-23T13:46:35.438Z,24.00
2018-05-23T13:49:03.702Z,23.80
2018-05-23T13:51:31.910Z,23.90
2018-05-23T13:54:00.823Z,24.00
2018-05-23T13:56:28.971Z,24.00
2018-05-23T13:58:57.883Z,24.30
2018-05-23T14:01:26.102Z,24.20
2018-05-23T14:03:54.310Z,24.30
2018-05-23T14:06:23.219Z,24.30
2018-05-23T14:08:54.207Z,24.20
2018-05-23T14:11:22.433Z,24.40
2018-05-23T14:14:09.442Z,24.30
2018-05-23T14:19:47.200Z,24.10
2018-05-23T14:25:42.700Z,24.20
2018-05-23T14:28:11.461Z,24.10
2018-05-23T14:30:40.377Z,24.20
2018-05-23T14:33:08.512Z,24.20
2018-05-23T14:35:36.653Z,24.20
2018-05-23T14:38:04.816Z,24.10
2018-05-23T14:40:32.960Z,24.10
2018-05-23T14:43:01.098Z,24.00
2018-05-23T14:45:29.287Z,24.00
2018-05-23T14:47:57.469Z,24.10
2018-05-23T14:50:25.642Z,24.20
2018-05-23T14:52:54.609Z,24.20
2018-05-23T14:55:22.753Z,24.20
2018-05-23T14:57:50.906Z,24.00
2018-05-23T15:00:19.083Z,23.90
2018-05-23T15:02:47.240Z,23.90
2018-05-23T15:05:15.367Z,23.80
2018-05-23T15:07:43.513Z,23.90
2018-05-23T15:10:11.646Z,23.90
2018-05-23T15:12:40.562Z,24.00
2018-05-23T15:15:09.270Z,24.00
2018-05-23T15:17:37.417Z,24.20
2018-05-23T15:20:05.695Z,24.30
2018-05-23T15:22:34.443Z,24.50
2018-05-23T15:25:03.369Z,24.50
2018-05-23T15:27:31.540Z,24.50
2018-05-23T15:29:59.688Z,24.10
2018-05-23T15:32:28.575Z,23.80
2018-05-23T15:34:56.795Z,23.80
2018-05-23T15:37:25.100Z,23.70
2018-05-23T15:39:53.235Z,24.00
2018-05-23T15:42:21.377Z,24.10
2018-05-23T15:44:50.961Z,24.00
2018-05-23T15:47:19.143Z,24.00
2018-05-23T15:49:48.754Z,24.00
2018-05-23T15:52:17.702Z,24.10
2018-05-23T15:54:45.972Z,24.10
2018-05-23T15:57:14.122Z,24.20
2018-05-23T15:59:42.247Z,24.10
2018-05-23T16:02:10.436Z,24.00
2018-05-23T16:04:38.573Z,23.90
2018-05-23T16:07:06.755Z,23.40
2018-05-23T16:09:35.000Z,23.30
2018-05-23T16:12:03.149Z,23.40
2018-05-23T16:14:31.277Z,23.60
2018-05-23T16:16:59.476Z,23.70
2018-05-23T16:19:31.226Z,23.50
2018-05-23T16:26:40.317Z,23.30
2018-05-23T16:29:08.486Z,23.20
2018-05-23T16:35:06.220Z,23.20
2018-05-23T16:37:35.960Z,23.30
2018-05-23T16:40:04.280Z,23.40
2018-05-23T16:42:33.399Z,23.30
2018-05-23T16:45:02.367Z,23.10
2018-05-23T16:47:56.406Z,23.10
2018-05-23T16:50:24.637Z,23.00
2018-05-23T16:52:52.818Z,23.00
2018-05-23T16:55:20.955Z,23.00
2018-05-23T16:57:49.094Z,23.00
2018-05-23T17:00:17.983Z,22.90
2018-05-23T17:02:46.906Z,22.90
2018-05-23T17:05:15.062Z,22.90
2018-05-23T17:07:43.444Z,22.70
2018-05-23T17:10:11.729Z,22.70
2018-05-23T17:12:39.889Z,22.70
2018-05-23T17:15:08.095Z,22.70
2018-05-23T17:17:36.314Z,22.70
2018-05-23T17:20:04.479Z,22.70
2018-05-23T17:22:32.594Z,22.50
2018-05-23T17:25:00.750Z,22.40
2018-05-23T17:27:28.963Z,22.40
2018-05-23T17:29:57.049Z,22.30
2018-05-23T17:32:25.165Z,22.10
2018-05-23T17:34:53.381Z,22.10
2018-05-23T17:37:21.559Z,22.00
2018-05-23T17:39:51.998Z,22.00
2018-05-23T17:42:20.150Z,22.00
2018-05-23T17:44:48.468Z,22.00
2018-05-23T17:47:17.487Z,22.00
2018-05-23T17:49:46.579Z,22.20
2018-05-23T17:52:14.781Z,22.10
2018-05-23T17:54:43.199Z,22.30
2018-05-23T17:57:11.360Z,22.40
2018-05-23T17:59:39.490Z,22.40
2018-05-23T18:02:07.654Z,22.40
2018-05-23T18:04:35.778Z,22.40
2018-05-23T18:07:03.916Z,22.40
2018-05-23T18:09:32.084Z,22.20
2018-05-23T18:12:00.270Z,22.20
2018-05-23T18:14:28.423Z,22.20
2018-05-23T18:16:56.687Z,22.20
2018-05-23T18:19:24.838Z,22.20
2018-05-23T18:21:53.046Z,22.00
2018-05-23T18:24:21.239Z,21.80
2018-05-23T18:26:49.436Z,21.60
2018-05-23T18:29:17.580Z,21.50
2018-05-23T18:31:45.787Z,21.40
2018-05-23T18:34:13.922Z,21.30
2018-05-23T18:36:42.096Z,21.20
2018-05-23T18:39:10.306Z,21.10
2018-05-23T18:41:38.578Z,21.00
2018-05-23T18:44:06.786Z,20.90
2018-05-23T18:46:35.790Z,20.70
2018-05-23T18:49:04.892Z,20.70
2018-05-23T18:51:33.062Z,20.70
2018-05-23T18:54:01.231Z,20.60
2018-05-23T18:56:30.168Z,20.40
2018-05-23T18:58:59.899Z,20.30
2018-05-23T19:01:28.144Z,20.30
2018-05-23T19:03:56.320Z,20.20
2018-05-23T19:06:24.476Z,20.20
2018-05-23T19:08:52.688Z,20.10
2018-05-23T19:11:27.646Z,20.00
2018-05-23T19:14:10.850Z,20.00
2018-05-23T19:16:39.811Z,19.80
2018-05-23T19:19:07.992Z,19.80
2018-05-23T19:21:36.177Z,19.80
2018-05-23T19:24:04.358Z,19.70
2018-05-23T19:26:32.535Z,19.60
2018-05-23T19:29:00.711Z,19.60
2018-05-23T19:31:30.349Z,19.40
2018-05-23T19:33:58.551Z,19.40
2018-05-23T19:36:26.711Z,19.40
2018-05-23T19:38:54.840Z,19.30
2018-05-23T19:41:23.758Z,19.10
2018-05-23T19:43:51.899Z,19.10
2018-05-23T19:46:20.059Z,19.10
2018-05-23T19:48:48.199Z,19.00
2018-05-23T19:51:16.356Z,18.90
2018-05-23T19:53:44.514Z,18.90
2018-05-23T19:56:12.664Z,18.80
2018-05-23T19:58:41.573Z,18.70
2018-05-23T20:01:09.765Z,18.60
2018-05-23T20:03:37.936Z,18.60
2018-05-23T20:06:06.077Z,18.60
2018-05-23T20:08:35.049Z,18.50
2018-05-23T20:11:03.265Z,18.50
2018-05-23T20:13:31.423Z,18.40
2018-05-23T20:16:00.338Z,18.30
2018-05-23T20:18:28.698Z,18.20
2018-05-23T20:20:56.829Z,18.20
2018-05-23T20:23:25.009Z,18.10
2018-05-23T20:25:53.149Z,18.10
2018-05-23T20:28:21.320Z,18.00
2018-05-23T20:30:49.577Z,18.00
2018-05-23T20:33:17.789Z,18.00
2018-05-23T20:35:46.055Z,17.90
2018-05-23T20:38:14.243Z,17.90
2018-05-23T20:40:42.421Z,17.90
2018-05-23T20:43:10.657Z,17.80
2018-05-23T20:45:38.883Z,17.80
2018-05-23T20:48:06.972Z,17.70
2018-05-23T20:50:35.870Z,17.60
2018-05-23T20:53:04.933Z,17.60
2018-05-23T20:55:33.009Z,17.60
2018-05-23T20:58:01.942Z,17.50
2018-05-23T21:00:30.131Z,17.50
2018-05-23T21:03:02.455Z,17.50
2018-05-23T21:05:31.494Z,17.40
2018-05-23T21:07:59.559Z,17.30
2018-05-23T21:10:27.769Z,17.30
2018-05-23T21:12:55.947Z,17.20
2018-05-23T21:15:24.149Z,17.20
2018-05-23T21:17:52.352Z,17.30
2018-05-23T21:22:55.262Z,17.20
2018-05-23T21:25:23.470Z,17.20
2018-05-23T21:27:51.609Z,17.10
2018-05-23T21:30:19.828Z,17.00
2018-05-23T21:32:49.880Z,17.00
2018-05-23T21:35:18.091Z,17.00
2018-05-23T21:37:46.210Z,17.00
2018-05-23T21:40:14.439Z,16.90
2018-05-23T21:42:42.615Z,16.90
2018-05-23T21:45:10.791Z,16.80
2018-05-23T21:47:39.720Z,16.70
2018-05-23T21:50:07.880Z,16.70
2018-05-23T21:52:36.007Z,16.70
2018-05-23T21:55:04.454Z,16.60
2018-05-23T21:57:32.689Z,16.60
2018-05-23T22:00:00.830Z,16.60
2018-05-23T22:02:28.964Z,16.50
2018-05-23T22:04:57.082Z,16.40
2018-05-23T22:07:25.217Z,16.30
2018-05-23T22:09:53.559Z,16.30
2018-05-23T22:12:21.747Z,16.20
2018-05-23T22:14:50.636Z,16.10
2018-05-23T22:17:19.554Z,16.10
2018-05-23T22:19:47.672Z,16.00
2018-05-23T22:22:15.802Z,16.00
2018-05-23T22:24:43.927Z,15.90
2018-05-23T22:27:12.068Z,15.90
2018-05-23T22:29:40.187Z,15.90
2018-05-23T22:32:09.104Z,15.80
2018-05-23T22:34:37.254Z,15.80
2018-05-23T22:37:05.383Z,15.80
2018-05-23T22:39:33.654Z,15.80
2018-05-23T22:42:01.804Z,15.70
2018-05-23T22:44:29.963Z,15.70
2018-05-23T22:46:58.107Z,15.70
2018-05-23T22:49:27.009Z,15.60
2018-05-23T22:51:55.914Z,15.60
2018-05-23T22:54:24.039Z,15.50
2018-05-23T22:56:52.171Z,15.60
2018-05-23T22:59:20.311Z,15.60
2018-05-23T23:01:49.208Z,15.50
2018-05-23T23:04:17.330Z,15.50
2018-05-23T23:06:45.485Z,15.40
2018-05-23T23:09:13.605Z,15.40
2018-05-23T23:11:42.522Z,15.30
2018-05-23T23:14:10.747Z,15.30
2018-05-23T23:16:38.876Z,15.30
2018-05-23T23:19:07.079Z,15.20
2018-05-23T23:21:35.259Z,15.20
2018-05-23T23:24:03.407Z,15.20
2018-05-23T23:26:31.546Z,15.10
2018-05-23T23:29:00.425Z,15.10
2018-05-23T23:31:29.333Z,15.10
2018-05-23T23:33:57.500Z,15.00
2018-05-23T23:36:25.632Z,15.00
2018-05-23T23:38:54.566Z,15.00
2018-05-23T23:41:23.111Z,15.00
2018-05-23T23:43:52.354Z,15.00
2018-05-23T23:46:21.327Z,14.90
2018-05-23T23:48:50.289Z,14.80
2018-05-23T23:51:18.527Z,14.80
2018-05-23T23:53:46.672Z,14.80
2018-05-23T23:56:15.614Z,14.70
2018-05-23T23:58:43.742Z,14.60
